F/V Ar Gavotten — FS9490 — position and weather

sailwx.info

Track history (hours):
 
Tides and Currents Weather Stations Pressure Air Temp Water Temp Dewpoint Dewpoint Depression Visibility Wind Speed Wind Dir Waves Ship Positions

F/V Ar Gavotten

Last reported at 2017-Sep-04 13:19 UTC. Time now 2017-Sep-25 13:40 UTC.
Position N 48°54' W 004°03'.
Warning: this ship's position is 21 days out of date.

Length 13 m.

Type: Other ship. MMSI: 227570230.

Date/timePositionNaut miles runAvg speedWind from/ knotsBaromVisibWave heightAir tempDewpointWater temp
2017-Sep-04 13:19N 48°54' W 004°03'3 7.5
2017-Sep-04 12:58N 48°56' W 004°05'4 7.3
2017-Sep-04 12:26N 48°59' W 004°08'4 6.9
2017-Sep-04 11:48N 49°03' W 004°12'5 4.0
2017-Sep-04 10:40N 49°07' W 004°15'0 2.2
2017-Sep-04 10:30N 49°08' W 004°14'1 2.3
2017-Sep-04 09:57N 49°08' W 004°13'1 1.9
2017-Sep-04 09:24N 49°09' W 004°11'1 1.2
2017-Sep-04 08:39N 49°09' W 004°10'0 1.9
2017-Sep-04 08:26N 49°09' W 004°10'1 1.8
2017-Sep-04 07:58N 49°10' W 004°09'1 2.0
2017-Sep-04 07:23N 49°11' W 004°07'1 2.0
2017-Sep-04 06:55N 49°11' W 004°06'0 0.6
2017-Sep-04 06:30N 49°11' W 004°07'  
2017-Aug-29 12:45N 48°48' W 003°60'12 7.9
2017-Aug-29 11:16N 48°60' W 004°05'2 7.8
2017-Aug-29 11:01N 49°02' W 004°06'4 7.9
2017-Aug-29 10:29N 49°06' W 004°08'4 7.9
2017-Aug-29 09:58N 49°09' W 004°10'3 5.8
2017-Aug-29 09:29N 49°12' W 004°08'1 2.7
2017-Aug-29 09:00N 49°12' W 004°06'1 2.2
2017-Aug-29 08:24N 49°12' W 004°08'1 2.1
2017-Aug-29 08:00N 49°11' W 004°09'1 2.0
2017-Aug-29 07:30N 49°10' W 004°10'1 2.1
2017-Aug-29 06:50N 49°10' W 004°11'2 5.6
2017-Aug-29 06:30N 49°08' W 004°14'1 2.0
2017-Aug-29 05:51N 49°07' W 004°15'1 2.0
2017-Aug-29 05:30N 49°08' W 004°14'1 1.9
2017-Aug-29 04:59N 49°09' W 004°13'1 2.0
2017-Aug-29 04:30N 49°09' W 004°12'1 1.7
2017-Aug-29 04:00N 49°10' W 004°11'3 5.7
2017-Aug-29 03:30N 49°07' W 004°10'4 7.4
2017-Aug-29 03:01N 49°03' W 004°09'5 7.4
2017-Aug-29 02:20N 48°59' W 004°06'3 7.3
2017-Aug-29 02:00N 48°56' W 004°05'4 7.5
2017-Aug-29 01:30N 48°53' W 004°03'5 7.5
2017-Aug-29 00:53N 48°49' W 004°00'5 0.2
2017-Aug-27 13:26N 48°54' W 004°03'5 8.0
2017-Aug-27 12:50N 48°58' W 004°06'3 8.1
2017-Aug-27 12:30N 49°01' W 004°07'4 8.2
2017-Aug-27 11:58N 49°05' W 004°08'4 4.1
2017-Aug-27 10:58N 49°08' W 004°13'6 4.0
2017-Aug-27 09:35N 49°11' W 004°07'12 7.2
2017-Aug-27 07:58N 48°60' W 004°02'4 7.9
2017-Aug-27 07:30N 48°56' W 004°01'8 8.0
2017-Aug-27 06:34N 48°49' W 003°58'1 7.4
2017-Aug-27 06:27N 48°48' W 003°58'3 0.3
2017-Aug-26 20:52N 48°45' W 003°58'3 7.8
2017-Aug-26 20:29N 48°48' W 003°58'9 8.1
2017-Aug-26 19:26N 48°56' W 004°02'4 8.1
2017-Aug-26 18:56N 48°59' W 004°04'4 8.1
2017-Aug-26 18:30N 49°03' W 004°06'4 8.3
2017-Aug-26 18:00N 49°07' W 004°09'3 6.6
2017-Aug-26 17:30N 49°10' W 004°10'3 6.4
2017-Aug-26 17:00N 49°12' W 004°06'2 4.0
2017-Aug-26 16:27N 49°11' W 004°09'3 6.0
2017-Aug-26 15:59N 49°09' W 004°12'3 5.7
2017-Aug-26 15:29N 49°07' W 004°15'4 8.3
2017-Aug-26 14:57N 49°03' W 004°12'21 2.9
2017-Aug-26 07:42N 48°44' W 003°59'0 1.2
2017-Aug-26 07:28N 48°44' W 003°59'  
Track history (hours):
 
Tides and Currents Weather Stations Pressure Air Temp Water Temp Dewpoint Dewpoint Depression Visibility Wind Speed Wind Dir Waves Ship Positions

F/V Ar Gavotten

Last reported at 2017-Sep-04 13:19 UTC. Time now 2017-Sep-25 13:40 UTC.
Position N 48°54' W 004°03'.
Warning: this ship's position is 21 days out of date.

Length 13 m.

Type: Other ship. MMSI: 227570230.

Date/timePositionNaut miles runAvg speedWind from/ knotsBaromVisibWave heightAir tempDewpointWater temp
2017-Sep-04 13:19N 48°54' W 004°03'3 7.5
2017-Sep-04 12:58N 48°56' W 004°05'4 7.3
2017-Sep-04 12:26N 48°59' W 004°08'4 6.9
2017-Sep-04 11:48N 49°03' W 004°12'5 4.0
2017-Sep-04 10:40N 49°07' W 004°15'0 2.2
2017-Sep-04 10:30N 49°08' W 004°14'1 2.3
2017-Sep-04 09:57N 49°08' W 004°13'1 1.9
2017-Sep-04 09:24N 49°09' W 004°11'1 1.2
2017-Sep-04 08:39N 49°09' W 004°10'0 1.9
2017-Sep-04 08:26N 49°09' W 004°10'1 1.8
2017-Sep-04 07:58N 49°10' W 004°09'1 2.0
2017-Sep-04 07:23N 49°11' W 004°07'1 2.0
2017-Sep-04 06:55N 49°11' W 004°06'0 0.6
2017-Sep-04 06:30N 49°11' W 004°07'  
2017-Aug-29 12:45N 48°48' W 003°60'12 7.9
2017-Aug-29 11:16N 48°60' W 004°05'2 7.8
2017-Aug-29 11:01N 49°02' W 004°06'4 7.9
2017-Aug-29 10:29N 49°06' W 004°08'4 7.9
2017-Aug-29 09:58N 49°09' W 004°10'3 5.8
2017-Aug-29 09:29N 49°12' W 004°08'1 2.7
2017-Aug-29 09:00N 49°12' W 004°06'1 2.2
2017-Aug-29 08:24N 49°12' W 004°08'1 2.1
2017-Aug-29 08:00N 49°11' W 004°09'1 2.0
2017-Aug-29 07:30N 49°10' W 004°10'1 2.1
2017-Aug-29 06:50N 49°10' W 004°11'2 5.6
2017-Aug-29 06:30N 49°08' W 004°14'1 2.0
2017-Aug-29 05:51N 49°07' W 004°15'1 2.0
2017-Aug-29 05:30N 49°08' W 004°14'1 1.9
2017-Aug-29 04:59N 49°09' W 004°13'1 2.0
2017-Aug-29 04:30N 49°09' W 004°12'1 1.7
2017-Aug-29 04:00N 49°10' W 004°11'3 5.7
2017-Aug-29 03:30N 49°07' W 004°10'4 7.4
2017-Aug-29 03:01N 49°03' W 004°09'5 7.4
2017-Aug-29 02:20N 48°59' W 004°06'3 7.3
2017-Aug-29 02:00N 48°56' W 004°05'4 7.5
2017-Aug-29 01:30N 48°53' W 004°03'5 7.5
2017-Aug-29 00:53N 48°49' W 004°00'5 0.2
2017-Aug-27 13:26N 48°54' W 004°03'5 8.0
2017-Aug-27 12:50N 48°58' W 004°06'3 8.1
2017-Aug-27 12:30N 49°01' W 004°07'4 8.2
2017-Aug-27 11:58N 49°05' W 004°08'4 4.1
2017-Aug-27 10:58N 49°08' W 004°13'6 4.0
2017-Aug-27 09:35N 49°11' W 004°07'12 7.2
2017-Aug-27 07:58N 48°60' W 004°02'4 7.9
2017-Aug-27 07:30N 48°56' W 004°01'8 8.0
2017-Aug-27 06:34N 48°49' W 003°58'1 7.4
2017-Aug-27 06:27N 48°48' W 003°58'3 0.3
2017-Aug-26 20:52N 48°45' W 003°58'3 7.8
2017-Aug-26 20:29N 48°48' W 003°58'9 8.1
2017-Aug-26 19:26N 48°56' W 004°02'4 8.1
2017-Aug-26 18:56N 48°59' W 004°04'4 8.1
2017-Aug-26 18:30N 49°03' W 004°06'4 8.3
2017-Aug-26 18:00N 49°07' W 004°09'3 6.6
2017-Aug-26 17:30N 49°10' W 004°10'3 6.4
2017-Aug-26 17:00N 49°12' W 004°06'2 4.0
2017-Aug-26 16:27N 49°11' W 004°09'3 6.0
2017-Aug-26 15:59N 49°09' W 004°12'3 5.7
2017-Aug-26 15:29N 49°07' W 004°15'4 8.3
2017-Aug-26 14:57N 49°03' W 004°12'21 2.9
2017-Aug-26 07:42N 48°44' W 003°59'0 1.2
2017-Aug-26 07:28N 48°44' W 003°59'  

Dump ship's entire track history